Time;durP1;ratioP1;P1;durP2;ratioP2;P2;SDS_P1;SDS_P2;PMS_P1;PMS_P2;Temp;Humidity;BMP_temperature;BMP_pressure;BME280_temperature;BME280_humidity;BME280_pressure;Samples;Min_cycle;Max_cycle;Signal;HPM_P1;HPM_P2
2022/10/29 00:00:29;;;;;;;5.47;2.97;;;13.50;99.90;;;;;;5020398;28;20037;-72
2022/10/29 00:02:55;;;;;;;5.63;2.28;;;13.60;99.90;;;;;;5012365;28;20567;-72
2022/10/29 00:05:20;;;;;;;7.55;2.00;;;13.50;99.90;;;;;;5018551;28;22266;-73
2022/10/29 00:07:46;;;;;;;5.22;2.10;;;13.90;99.90;;;;;;5020787;28;20414;-72
2022/10/29 00:10:11;;;;;;;4.65;1.77;;;13.90;99.90;;;;;;5009850;28;20109;-73
2022/10/29 00:12:37;;;;;;;5.32;2.20;;;13.60;99.90;;;;;;5016328;28;20073;-72
2022/10/29 00:15:03;;;;;;;4.75;1.80;;;13.60;99.90;;;;;;5014643;28;20044;-72
2022/10/29 00:17:29;;;;;;;5.18;2.65;;;13.60;99.90;;;;;;5016077;28;20072;-73
2022/10/29 00:19:54;;;;;;;5.68;2.50;;;13.70;99.90;;;;;;5013201;28;20041;-72
2022/10/29 00:22:20;;;;;;;7.50;2.45;;;13.60;99.90;;;;;;5012495;28;20116;-73
2022/10/29 00:24:46;;;;;;;5.38;2.30;;;13.60;99.90;;;;;;5012377;28;20025;-72
2022/10/29 00:27:11;;;;;;;5.93;2.20;;;13.60;99.90;;;;;;5010806;28;20037;-73
2022/10/29 00:29:37;;;;;;;5.38;1.88;;;13.60;99.90;;;;;;5009609;28;20468;-73
2022/10/29 00:32:03;;;;;;;8.40;2.45;;;13.40;99.90;;;;;;5017128;28;20038;-72
2022/10/29 00:34:28;;;;;;;7.05;2.33;;;13.60;99.90;;;;;;5017961;28;20064;-72
2022/10/29 00:36:54;;;;;;;4.82;2.13;;;13.70;99.90;;;;;;5020085;28;20476;-72
2022/10/29 00:39:20;;;;;;;4.15;1.88;;;13.80;99.90;;;;;;5010803;28;20038;-72
2022/10/29 00:41:45;;;;;;;6.32;2.70;;;14.00;99.90;;;;;;5007263;28;20518;-72
2022/10/29 00:44:14;;;;;;;5.07;2.20;;;14.30;99.90;;;;;;5008964;28;20022;-73
2022/10/29 00:46:42;;;;;;;8.27;2.75;;;14.40;99.90;;;;;;5012936;28;20049;-72
2022/10/29 00:49:09;;;;;;;7.15;2.05;;;14.10;99.90;;;;;;5010383;28;20049;-72
2022/10/29 00:51:37;;;;;;;6.40;2.10;;;13.70;99.90;;;;;;5010594;28;20457;-72
2022/10/29 00:54:08;;;;;;;5.85;2.30;;;13.50;99.90;;;;;;5009039;28;20144;-72
2022/10/29 00:57:10;;;;;;;5.40;1.85;;;13.30;99.90;;;;;;5015316;28;20113;-72
2022/10/29 00:59:36;;;;;;;5.07;2.35;;;13.40;99.90;;;;;;5016933;28;20054;-72
2022/10/29 01:02:02;;;;;;;5.68;2.20;;;13.50;99.90;;;;;;5013034;28;20696;-73
2022/10/29 01:04:29;;;;;;;6.25;2.65;;;13.50;99.90;;;;;;5017120;28;20077;-72
2022/10/29 01:06:55;;;;;;;7.65;2.47;;;13.50;99.90;;;;;;5018459;28;20384;-72
2022/10/29 01:09:21;;;;;;;8.68;2.78;;;13.50;99.90;;;;;;5021501;28;20033;-72
2022/10/29 01:12:26;;;;;;;8.18;3.08;;;13.60;99.90;;;;;;5018959;28;20510;-72
2022/10/29 01:14:59;;;;;;;6.68;2.00;;;13.40;99.90;;;;;;5018318;28;20034;-73
2022/10/29 01:17:29;;;;;;;5.25;2.28;;;13.30;99.90;;;;;;5026215;28;20034;-72
2022/10/29 01:19:55;;;;;;;6.60;2.22;;;13.50;99.90;;;;;;5020599;28;20044;-73
2022/10/29 01:22:39;;;;;;;5.43;2.15;;;13.30;99.90;;;;;;5015560;28;20030;-72
2022/10/29 01:25:08;;;;;;;9.00;2.22;;;13.30;99.90;;;;;;5012430;28;20109;-72
2022/10/29 01:27:56;;;;;;;5.63;2.30;;;13.30;99.90;;;;;;5011526;28;20556;-72
2022/10/29 01:30:56;;;;;;;4.88;2.30;;;13.10;99.90;;;;;;5018892;28;20129;-72
2022/10/29 01:33:26;;;;;;;5.60;2.17;;;13.20;99.90;;;;;;5011631;28;20057;-72
2022/10/29 01:36:15;;;;;;;8.07;2.40;;;13.20;99.90;;;;;;5016460;28;20119;-72
2022/10/29 01:39:06;;;;;;;4.75;1.83;;;13.70;99.90;;;;;;5016441;28;20034;-72
2022/10/29 01:41:56;;;;;;;7.38;1.88;;;13.40;99.90;;;;;;5024502;28;20076;-72
2022/10/29 01:44:40;;;;;;;10.57;2.10;;;13.10;99.90;;;;;;5013524;28;20084;-72
2022/10/29 01:47:13;;;;;;;;;;;13.30;99.90;;;;;;5017991;28;20480;-73
2022/10/29 01:49:42;;;;;;;4.75;2.03;;;13.00;99.90;;;;;;5012704;28;20437;-72
2022/10/29 01:52:12;;;;;;;6.97;2.50;;;12.90;99.90;;;;;;5016897;28;20478;-72
2022/10/29 01:54:43;;;;;;;3.47;1.63;;;13.40;99.90;;;;;;5013632;28;20396;-72
2022/10/29 01:57:32;;;;;;;6.63;1.92;;;13.40;99.90;;;;;;5017664;28;20475;-72
2022/10/29 02:00:10;;;;;;;7.68;2.67;;;13.40;99.90;;;;;;5015586;28;20388;-72
2022/10/29 02:02:48;;;;;;;8.05;2.80;;;13.40;99.90;;;;;;5016634;28;20037;-72
2022/10/29 02:05:29;;;;;;;3.78;1.70;;;13.40;99.90;;;;;;5023859;28;20388;-72
2022/10/29 02:08:05;;;;;;;6.68;2.13;;;13.20;99.90;;;;;;5017618;28;21216;-72
2022/10/29 02:10:56;;;;;;;8.30;2.58;;;13.10;99.90;;;;;;5019792;28;20025;-73
2022/10/29 02:13:33;;;;;;;8.15;2.22;;;13.10;99.90;;;;;;5016028;28;20030;-72
2022/10/29 02:16:04;;;;;;;3.88;2.03;;;12.80;99.90;;;;;;5014361;28;20511;-73
2022/10/29 02:18:29;;;;;;;8.18;2.28;;;12.90;99.90;;;;;;5009995;28;20586;-72
2022/10/29 02:20:55;;;;;;;7.93;2.10;;;13.00;99.90;;;;;;5011528;28;20045;-73
2022/10/29 02:23:21;;;;;;;11.05;2.92;;;12.90;99.90;;;;;;5018451;28;20058;-72
2022/10/29 02:25:46;;;;;;;12.63;2.38;;;12.50;99.90;;;;;;5014998;28;20066;-72
2022/10/29 02:28:12;;;;;;;5.50;2.03;;;12.70;99.90;;;;;;5012518;28;20080;-72
2022/10/29 02:30:38;;;;;;;4.70;1.75;;;13.20;99.90;;;;;;5020028;28;20029;-72
2022/10/29 02:33:03;;;;;;;5.70;2.72;;;13.10;99.90;;;;;;5012122;28;20061;-72
2022/10/29 02:35:29;;;;;;;5.03;1.90;;;12.90;99.90;;;;;;5014806;28;20121;-73
2022/10/29 02:37:54;;;;;;;7.25;2.03;;;12.90;99.90;;;;;;5020731;28;20029;-72
2022/10/29 02:40:20;;;;;;;6.40;1.90;;;12.70;99.90;;;;;;5015965;28;20044;-72
2022/10/29 02:42:46;;;;;;;6.55;2.28;;;12.70;99.90;;;;;;5021595;28;20029;-72
2022/10/29 02:45:11;;;;;;;6.00;2.42;;;12.50;99.90;;;;;;5017023;28;20445;-72
2022/10/29 02:47:37;;;;;;;4.68;1.92;;;12.80;99.90;;;;;;5018226;28;20063;-72
2022/10/29 02:50:03;;;;;;;5.38;1.85;;;12.70;99.90;;;;;;5013070;28;20075;-72
2022/10/29 02:52:28;;;;;;;6.57;2.60;;;12.70;99.90;;;;;;5016253;28;20029;-72
2022/10/29 02:54:54;;;;;;;4.88;2.17;;;13.00;99.90;;;;;;5013928;28;20037;-72
2022/10/29 02:57:19;;;;;;;6.95;1.85;;;13.40;99.90;;;;;;5014383;28;20167;-73
2022/10/29 02:59:45;;;;;;;5.60;1.88;;;13.20;99.90;;;;;;5016146;28;20443;-72
2022/10/29 03:02:11;;;;;;;4.88;2.47;;;13.00;99.90;;;;;;5017362;28;20033;-71
2022/10/29 03:04:38;;;;;;;8.13;2.63;;;13.20;99.90;;;;;;5009784;28;20034;-71
2022/10/29 03:07:03;;;;;;;5.30;2.50;;;13.10;99.90;;;;;;5009743;28;20041;-71
2022/10/29 03:09:29;;;;;;;5.68;2.22;;;13.00;99.90;;;;;;5003866;28;20029;-71
2022/10/29 03:11:55;;;;;;;4.68;2.05;;;13.20;99.90;;;;;;5011719;28;20029;-71
2022/10/29 03:14:20;;;;;;;7.68;2.40;;;13.40;99.90;;;;;;5015762;28;20029;-71
2022/10/29 03:16:46;;;;;;;10.07;2.25;;;13.20;99.90;;;;;;5012165;28;20116;-71
2022/10/29 03:19:12;;;;;;;4.50;2.10;;;13.00;99.90;;;;;;5009756;28;20030;-71
2022/10/29 03:21:37;;;;;;;8.95;2.47;;;13.10;99.90;;;;;;5001224;28;20037;-71
2022/10/29 03:24:04;;;;;;;7.40;2.50;;;13.50;99.90;;;;;;5010966;28;21925;-71
2022/10/29 03:26:30;;;;;;;7.30;2.00;;;13.60;99.90;;;;;;5007964;28;20033;-71
2022/10/29 03:28:56;;;;;;;3.72;1.63;;;13.60;99.90;;;;;;5010014;28;20500;-71
2022/10/29 03:31:21;;;;;;;7.43;2.10;;;13.40;99.90;;;;;;5019514;28;20097;-71
2022/10/29 03:33:47;;;;;;;6.25;2.38;;;13.20;99.90;;;;;;5014397;28;20106;-71
2022/10/29 03:36:13;;;;;;;6.68;2.00;;;13.00;99.90;;;;;;5022468;28;20021;-71
2022/10/29 03:38:38;;;;;;;4.53;2.15;;;12.90;99.90;;;;;;5004331;28;20032;-70
2022/10/29 03:41:09;;;;;;;6.15;2.85;;;12.80;99.90;;;;;;5004783;28;20034;-70
2022/10/29 03:43:35;;;;;;;7.80;2.25;;;12.80;99.90;;;;;;5008300;28;20116;-70
2022/10/29 03:46:01;;;;;;;12.93;2.78;;;12.70;99.90;;;;;;5004316;28;20030;-70
2022/10/29 03:48:27;;;;;;;6.43;3.03;;;12.50;99.90;;;;;;5006609;28;20037;-70
2022/10/29 03:50:58;;;;;;;3.10;1.70;;;12.50;99.90;;;;;;5019567;28;20027;-71
2022/10/29 03:53:24;;;;;;;6.63;2.25;;;12.90;99.90;;;;;;5002330;28;20053;-71
2022/10/29 03:55:51;;;;;;;5.82;2.15;;;13.00;99.90;;;;;;5008364;28;20042;-71
2022/10/29 03:58:18;;;;;;;4.80;1.92;;;12.80;99.90;;;;;;5002271;28;20032;-71
2022/10/29 04:00:43;;;;;;;6.78;1.98;;;12.70;99.90;;;;;;5007607;28;20480;-71
2022/10/29 04:03:09;;;;;;;6.47;2.05;;;12.70;99.90;;;;;;5012488;28;20030;-71
2022/10/29 04:05:35;;;;;;;4.53;1.92;;;12.70;99.90;;;;;;5005957;28;20026;-71
2022/10/29 04:08:00;;;;;;;13.32;3.47;;;12.80;99.90;;;;;;5011313;28;20032;-71
2022/10/29 04:10:26;;;;;;;4.95;1.83;;;12.50;99.90;;;;;;5006502;28;20033;-71
2022/10/29 04:12:52;;;;;;;6.22;1.83;;;12.60;99.90;;;;;;5006283;28;20124;-71
2022/10/29 04:15:17;;;;;;;5.80;1.98;;;12.70;99.90;;;;;;5009584;28;20155;-71
2022/10/29 04:17:43;;;;;;;5.95;1.70;;;12.50;99.90;;;;;;5008515;28;20156;-71
2022/10/29 04:20:09;;;;;;;5.57;2.25;;;12.40;99.90;;;;;;5006378;28;20058;-71
2022/10/29 04:22:35;;;;;;;6.50;1.70;;;12.30;99.90;;;;;;5008634;28;20037;-71
2022/10/29 04:25:00;;;;;;;8.57;2.45;;;12.10;99.90;;;;;;5006475;28;20025;-71
2022/10/29 04:27:27;;;;;;;7.72;2.45;;;12.20;99.90;;;;;;5003375;28;20038;-71
2022/10/29 04:29:53;;;;;;;6.57;2.03;;;12.30;99.90;;;;;;5006467;28;20073;-71
2022/10/29 04:32:18;;;;;;;6.45;2.35;;;12.50;99.90;;;;;;5012127;28;20076;-71
2022/10/29 04:34:44;;;;;;;5.93;2.28;;;12.70;99.90;;;;;;5011271;28;20036;-71
2022/10/29 04:37:09;;;;;;;3.35;2.22;;;13.00;99.90;;;;;;5012037;28;20057;-71
2022/10/29 04:39:35;;;;;;;4.07;1.80;;;12.90;99.90;;;;;;5019198;28;20038;-71
2022/10/29 04:42:01;;;;;;;9.45;2.47;;;12.90;99.90;;;;;;5014688;28;20069;-71
2022/10/29 04:44:26;;;;;;;3.47;1.63;;;12.80;99.90;;;;;;5013911;28;21016;-70
2022/10/29 04:46:52;;;;;;;4.20;2.08;;;12.60;99.90;;;;;;5013376;28;20126;-71
2022/10/29 04:49:17;;;;;;;9.82;1.85;;;12.50;99.90;;;;;;5034522;28;20112;-71
2022/10/29 04:51:43;;;;;;;8.63;2.65;;;12.40;99.90;;;;;;5010452;28;20036;-71
2022/10/29 04:54:09;;;;;;;4.88;2.00;;;12.30;99.90;;;;;;5010374;28;20026;-71
2022/10/29 04:56:34;;;;;;;6.13;1.92;;;12.40;99.90;;;;;;5010271;28;20420;-71
2022/10/29 04:59:00;;;;;;;4.47;1.98;;;12.70;99.90;;;;;;5013035;28;20078;-71
2022/10/29 05:01:26;;;;;;;3.75;1.85;;;12.70;99.90;;;;;;5017620;28;20041;-71
2022/10/29 05:03:51;;;;;;;8.63;2.65;;;13.00;99.90;;;;;;5009820;28;20037;-71
2022/10/29 05:06:17;;;;;;;6.60;2.00;;;12.90;99.90;;;;;;5019080;28;20026;-71
2022/10/29 05:08:43;;;;;;;5.03;2.00;;;12.70;99.90;;;;;;5013102;28;20487;-71
2022/10/29 05:11:08;;;;;;;5.40;2.58;;;12.70;99.90;;;;;;5010221;28;20026;-71
2022/10/29 05:13:34;;;;;;;6.38;2.15;;;13.00;99.90;;;;;;5009468;28;20033;-71
2022/10/29 05:16:00;;;;;;;5.90;2.15;;;13.00;99.90;;;;;;5009049;28;20054;-71
2022/10/29 05:18:26;;;;;;;3.72;2.10;;;12.80;99.90;;;;;;5003914;28;20049;-71
2022/10/29 05:20:53;;;;;;;6.38;2.40;;;12.60;99.90;;;;;;5012248;28;20083;-71
2022/10/29 05:23:19;;;;;;;5.68;2.10;;;12.60;99.90;;;;;;5010117;28;20925;-71
2022/10/29 05:25:48;;;;;;;4.43;1.83;;;12.60;99.90;;;;;;5010084;28;20041;-71
2022/10/29 05:28:19;;;;;;;5.50;2.20;;;12.50;99.90;;;;;;5005232;28;20041;-70
2022/10/29 05:30:46;;;;;;;3.33;1.42;;;12.40;99.90;;;;;;5024431;28;20080;-71
2022/10/29 05:33:16;;;;;;;3.97;1.65;;;12.30;99.90;;;;;;5010880;28;20033;-71
2022/10/29 05:35:41;;;;;;;4.07;2.05;;;12.50;99.90;;;;;;5009027;28;20388;-71
2022/10/29 05:38:09;;;;;;;5.07;1.98;;;12.30;99.90;;;;;;5004548;28;20046;-71
2022/10/29 05:40:35;;;;;;;8.80;2.45;;;12.20;99.90;;;;;;5013823;28;20037;-70
2022/10/29 05:43:00;;;;;;;9.70;2.38;;;12.50;99.90;;;;;;5006116;28;20109;-71
2022/10/29 05:45:26;;;;;;;7.18;2.05;;;12.70;99.90;;;;;;5005760;28;20025;-71
2022/10/29 05:48:00;;;;;;;7.75;2.10;;;12.70;99.90;;;;;;5008892;28;20113;-71
2022/10/29 05:50:27;;;;;;;4.72;1.75;;;12.60;99.90;;;;;;5021552;28;20483;-71
2022/10/29 05:52:58;;;;;;;10.80;2.47;;;12.50;99.90;;;;;;5018663;28;20100;-71
2022/10/29 05:55:24;;;;;;;4.15;2.45;;;12.30;99.90;;;;;;5005767;28;20045;-71
2022/10/29 05:57:54;;;;;;;5.95;2.50;;;12.20;99.90;;;;;;5008478;28;20034;-71
2022/10/29 06:00:20;;;;;;;5.53;1.98;;;12.30;99.90;;;;;;5010919;28;20128;-71
2022/10/29 06:02:46;;;;;;;5.25;2.03;;;12.20;99.90;;;;;;5011142;28;20445;-71
2022/10/29 06:05:11;;;;;;;6.88;2.42;;;12.30;99.90;;;;;;5005420;28;20421;-71
2022/10/29 06:07:37;;;;;;;6.28;2.10;;;12.80;99.90;;;;;;5011901;28;20145;-72
2022/10/29 06:10:03;;;;;;;4.32;2.05;;;13.10;99.90;;;;;;5004615;28;20093;-70
2022/10/29 06:12:32;;;;;;;9.00;2.05;;;12.90;99.90;;;;;;5012616;28;20026;-71
2022/10/29 06:14:58;;;;;;;8.25;2.17;;;12.80;99.90;;;;;;5004487;28;20030;-70
2022/10/29 06:17:24;;;;;;;10.68;2.78;;;13.10;99.90;;;;;;5012633;28;20191;-70
2022/10/29 06:19:49;;;;;;;5.45;2.00;;;13.20;99.90;;;;;;5007392;28;20129;-70
2022/10/29 06:22:15;;;;;;;6.68;2.38;;;12.90;99.90;;;;;;5016812;28;20040;-71
2022/10/29 06:24:40;;;;;;;10.57;2.13;;;12.80;99.90;;;;;;5008928;28;20029;-71
2022/10/29 06:27:06;;;;;;;9.98;2.67;;;13.10;99.90;;;;;;5004349;28;20536;-71
2022/10/29 06:29:32;;;;;;;3.60;1.67;;;13.40;99.90;;;;;;5008984;28;20049;-71
2022/10/29 06:31:57;;;;;;;10.20;2.72;;;13.40;99.90;;;;;;5016288;28;20056;-71
2022/10/29 06:34:23;;;;;;;6.93;1.88;;;13.30;99.90;;;;;;5005865;28;20021;-70
2022/10/29 06:36:48;;;;;;;5.40;2.40;;;13.00;99.90;;;;;;5011531;28;20080;-70
2022/10/29 06:39:14;;;;;;;7.30;2.10;;;13.00;99.90;;;;;;5013728;28;20049;-71
2022/10/29 06:41:40;;;;;;;7.93;2.92;;;12.80;99.90;;;;;;5004899;28;20057;-71
2022/10/29 06:44:05;;;;;;;6.70;3.58;;;12.80;99.90;;;;;;5011514;28;20065;-71
2022/10/29 06:46:33;;;;;;;11.13;2.83;;;12.80;99.90;;;;;;5008752;28;20114;-71
2022/10/29 06:48:59;;;;;;;4.28;2.22;;;12.80;99.90;;;;;;5006724;28;20025;-71
2022/10/29 06:51:25;;;;;;;4.28;2.13;;;13.00;99.90;;;;;;5004871;28;20040;-71
2022/10/29 06:53:52;;;;;;;5.07;2.70;;;12.80;99.90;;;;;;5013278;28;20124;-70
2022/10/29 06:56:18;;;;;;;4.13;2.20;;;12.70;99.90;;;;;;5013624;28;20041;-70
2022/10/29 06:58:44;;;;;;;5.82;2.30;;;12.60;99.90;;;;;;5012891;28;20484;-70
2022/10/29 07:01:09;;;;;;;7.05;2.15;;;12.80;99.90;;;;;;5017313;28;20034;-70
2022/10/29 07:03:35;;;;;;;6.80;2.00;;;13.20;99.90;;;;;;5005673;28;20061;-71
2022/10/29 07:06:01;;;;;;;5.50;2.10;;;13.40;99.90;;;;;;5015086;28;20033;-71
2022/10/29 07:08:27;;;;;;;6.45;2.00;;;13.40;99.90;;;;;;5012724;28;20049;-70
2022/10/29 07:10:53;;;;;;;9.18;1.98;;;13.50;99.90;;;;;;5009632;28;20552;-70
2022/10/29 07:13:19;;;;;;;6.88;1.85;;;13.40;99.90;;;;;;5010379;28;20076;-71
2022/10/29 07:15:45;;;;;;;7.95;2.00;;;13.50;99.90;;;;;;5007386;28;20076;-71
2022/10/29 07:18:11;;;;;;;7.85;2.10;;;13.50;99.90;;;;;;5010881;28;20445;-71
2022/10/29 07:20:40;;;;;;;5.95;2.53;;;13.40;99.90;;;;;;5011325;28;20042;-71
2022/10/29 07:23:07;;;;;;;5.60;1.80;;;13.30;99.90;;;;;;5012262;28;20030;-72
2022/10/29 07:25:33;;;;;;;7.95;1.80;;;13.30;99.90;;;;;;5005472;28;20102;-71
2022/10/29 07:28:11;;;;;;;8.07;2.67;;;13.40;99.90;;;;;;5025932;28;20606;-71
2022/10/29 07:30:37;;;;;;;7.18;2.85;;;13.20;99.90;;;;;;5008983;28;20076;-70
2022/10/29 07:33:03;;;;;;;7.18;2.17;;;13.00;99.90;;;;;;5008997;28;20036;-72
2022/10/29 07:35:29;;;;;;;7.93;1.83;;;13.20;99.90;;;;;;5004614;28;20033;-72
2022/10/29 07:37:59;;;;;;;7.00;2.03;;;13.40;99.90;;;;;;5012252;28;20033;-72
2022/10/29 07:40:24;;;;;;;6.40;2.45;;;13.40;99.90;;;;;;5011349;28;20052;-73
2022/10/29 07:42:54;;;;;;;6.63;2.50;;;13.40;99.90;;;;;;5012114;28;20033;-72
2022/10/29 07:45:19;;;;;;;4.72;1.92;;;13.60;99.90;;;;;;5009530;28;20040;-72
2022/10/29 07:47:45;;;;;;;8.75;2.50;;;13.60;99.90;;;;;;5009525;28;20033;-72
2022/10/29 07:50:11;;;;;;;4.18;2.10;;;13.60;99.90;;;;;;5002337;28;20037;-72
2022/10/29 07:52:38;;;;;;;6.55;2.72;;;13.50;99.90;;;;;;5008277;28;20092;-73
2022/10/29 07:55:05;;;;;;;7.70;2.03;;;13.60;99.90;;;;;;5009092;28;20034;-72
2022/10/29 07:57:30;;;;;;;4.82;1.83;;;13.60;99.90;;;;;;5016226;28;20065;-73
2022/10/29 07:59:56;;;;;;;8.30;2.60;;;13.60;99.90;;;;;;5008122;28;20088;-73
2022/10/29 08:02:21;;;;;;;7.00;2.17;;;13.60;99.90;;;;;;5007760;28;20030;-72
2022/10/29 08:04:47;;;;;;;4.85;1.70;;;13.30;99.90;;;;;;5017192;28;20037;-72
2022/10/29 08:07:12;;;;;;;7.03;2.15;;;13.30;99.90;;;;;;5007290;28;20101;-72
2022/10/29 08:09:39;;;;;;;7.20;2.45;;;13.20;99.90;;;;;;5009220;28;20033;-72
2022/10/29 08:12:07;;;;;;;5.75;2.13;;;13.10;99.90;;;;;;5007108;28;20444;-72
2022/10/29 08:14:32;;;;;;;7.00;2.47;;;13.50;99.90;;;;;;5009011;28;20098;-73
2022/10/29 08:16:58;;;;;;;9.68;2.58;;;13.60;99.90;;;;;;5016078;28;20041;-73
2022/10/29 08:19:24;;;;;;;6.07;2.10;;;13.90;99.90;;;;;;5004624;28;20037;-72
2022/10/29 08:21:49;;;;;;;4.18;1.98;;;14.00;99.90;;;;;;5010594;28;20034;-72
2022/10/29 08:24:15;;;;;;;7.32;2.47;;;14.00;99.90;;;;;;5020856;28;20033;-73
2022/10/29 08:26:40;;;;;;;9.88;2.60;;;13.90;99.90;;;;;;5018670;28;20034;-71
2022/10/29 08:29:06;;;;;;;6.20;2.10;;;14.00;99.90;;;;;;5016582;28;20041;-71
2022/10/29 08:31:32;;;;;;;8.88;2.58;;;14.00;99.90;;;;;;5018608;28;20132;-72
2022/10/29 08:33:58;;;;;;;3.92;1.83;;;14.00;99.90;;;;;;5021949;28;20033;-72
2022/10/29 08:36:23;;;;;;;9.05;2.38;;;13.90;99.90;;;;;;5021796;28;20030;-72
2022/10/29 08:38:49;;;;;;;7.07;2.13;;;13.80;99.90;;;;;;5024568;28;20033;-75
2022/10/29 08:41:20;;;;;;;5.00;1.92;;;13.60;99.90;;;;;;5020763;28;20682;-74
2022/10/29 08:43:55;;;;;;;6.10;2.03;;;13.60;99.90;;;;;;5020839;28;20034;-72
2022/10/29 08:46:39;;;;;;;9.18;2.13;;;13.50;99.90;;;;;;5017286;28;20030;-73
2022/10/29 08:49:16;;;;;;;6.40;2.40;;;13.50;99.90;;;;;;5007862;28;20030;-73
2022/10/29 08:51:46;;;;;;;6.97;2.53;;;13.70;99.90;;;;;;5018462;28;20042;-73
2022/10/29 08:54:14;;;;;;;4.60;2.10;;;14.00;99.90;;;;;;5007990;28;20033;-73
2022/10/29 08:56:47;;;;;;;8.73;2.50;;;14.10;99.90;;;;;;5018707;28;20565;-73
2022/10/29 08:59:22;;;;;;;6.50;2.00;;;14.20;99.90;;;;;;5021098;28;20042;-73
2022/10/29 09:01:49;;;;;;;7.85;2.63;;;14.10;99.90;;;;;;5025304;28;20080;-73
2022/10/29 09:04:20;;;;;;;9.05;2.25;;;14.20;99.90;;;;;;5025122;28;20036;-73
2022/10/29 09:07:07;;;;;;;7.65;1.85;;;14.30;99.90;;;;;;5020951;28;20072;-73
2022/10/29 09:09:54;;;;;;;7.43;2.03;;;14.40;99.90;;;;;;5022220;28;20029;-73
2022/10/29 09:12:55;;;;;;;7.28;2.30;;;14.50;99.90;;;;;;5026749;28;20045;-73
2022/10/29 09:15:58;;;;;;;6.03;2.58;;;14.50;99.90;;;;;;5027342;28;20507;-72
2022/10/29 09:18:36;;;;;;;5.75;2.63;;;14.40;99.90;;;;;;5018890;28;20045;-73
2022/10/29 09:21:28;;;;;;;9.20;2.10;;;14.40;99.90;;;;;;5027789;28;20128;-73
2022/10/29 09:24:03;;;;;;;7.10;2.60;;;14.50;99.90;;;;;;5028346;28;20376;-72
2022/10/29 09:26:58;;;;;;;6.20;2.10;;;14.50;99.90;;;;;;5019828;28;20083;-73
2022/10/29 09:29:32;;;;;;;4.25;2.00;;;14.50;99.90;;;;;;5009095;28;20158;-72
2022/10/29 09:32:14;;;;;;;5.95;2.58;;;14.80;99.90;;;;;;5016067;28;20040;-73
2022/10/29 09:34:49;;;;;;;5.00;2.05;;;14.90;99.90;;;;;;5019433;28;20143;-73
2022/10/29 09:37:28;;;;;;;6.05;1.98;;;15.10;99.90;;;;;;5016502;28;20119;-72
2022/10/29 09:39:56;;;;;;;9.13;2.90;;;15.20;99.90;;;;;;5020376;28;20121;-73
2022/10/29 09:42:32;;;;;;;7.57;2.40;;;15.30;99.90;;;;;;5009136;28;20488;-72
2022/10/29 09:45:02;;;;;;;6.25;2.10;;;15.30;99.90;;;;;;5008702;28;20058;-73
2022/10/29 09:47:45;;;;;;;4.40;1.85;;;15.30;99.90;;;;;;5017869;28;20041;-73
2022/10/29 09:50:33;;;;;;;14.55;2.05;;;15.40;99.90;;;;;;5007416;28;20041;-73
2022/10/29 09:52:59;;;;;;;4.72;1.95;;;15.50;99.90;;;;;;5014892;28;20029;-73
2022/10/29 09:55:27;;;;;;;4.85;2.42;;;15.50;99.90;;;;;;5016462;28;20120;-73
2022/10/29 09:57:56;;;;;;;6.00;2.17;;;15.60;99.90;;;;;;5014548;28;20094;-72
2022/10/29 10:00:27;;;;;;;5.50;2.75;;;15.50;99.90;;;;;;5020207;28;20498;-73
2022/10/29 10:02:59;;;;;;;8.63;2.38;;;15.50;99.90;;;;;;5017878;28;20032;-73
2022/10/29 10:05:29;;;;;;;7.55;2.45;;;15.50;99.90;;;;;;5015186;28;20041;-73
2022/10/29 10:08:14;;;;;;;5.72;2.53;;;15.70;99.90;;;;;;5015783;28;20041;-73
2022/10/29 10:10:56;;;;;;;7.50;2.47;;;15.70;99.90;;;;;;5017284;28;20048;-73
2022/10/29 10:13:31;;;;;;;9.35;3.03;;;15.80;99.90;;;;;;5012527;28;20053;-72
2022/10/29 10:15:59;;;;;;;5.93;2.50;;;16.10;99.90;;;;;;5019137;28;20040;-73
2022/10/29 10:18:29;;;;;;;6.82;2.97;;;16.20;99.90;;;;;;5013697;28;20041;-73
2022/10/29 10:21:03;;;;;;;7.53;2.83;;;16.20;99.90;;;;;;5023480;28;20045;-73
2022/10/29 10:23:50;;;;;;;9.43;3.33;;;16.30;99.90;;;;;;5007837;28;20025;-73
2022/10/29 10:26:40;;;;;;;5.82;2.08;;;16.30;99.90;;;;;;5013395;28;20479;-73
2022/10/29 10:29:15;;;;;;;9.43;3.80;;;16.30;99.90;;;;;;5013377;28;20026;-74
2022/10/29 10:31:48;;;;;;;8.98;2.50;;;16.40;99.90;;;;;;5013674;28;20580;-74
2022/10/29 10:34:20;;;;;;;5.97;2.75;;;16.30;99.90;;;;;;5025456;28;20029;-73
2022/10/29 10:37:00;;;;;;;5.88;2.38;;;16.40;99.90;;;;;;5022577;28;20048;-73
2022/10/29 10:39:33;;;;;;;7.25;2.53;;;16.50;99.90;;;;;;5029460;28;20033;-73
2022/10/29 10:42:03;;;;;;;6.15;2.15;;;16.70;99.90;;;;;;5009840;28;20413;-74
2022/10/29 10:44:29;;;;;;;7.50;2.80;;;16.80;99.90;;;;;;5014110;28;20042;-72
2022/10/29 10:46:58;;;;;;;7.35;2.30;;;16.60;99.90;;;;;;5012945;28;20691;-72
2022/10/29 10:49:36;;;;;;;6.10;2.50;;;16.70;99.90;;;;;;5022148;28;20022;-72
2022/10/29 10:52:19;;;;;;;6.00;2.30;;;16.80;99.90;;;;;;5012850;28;20120;-71
2022/10/29 10:55:05;;;;;;;7.33;2.40;;;16.90;99.90;;;;;;5012292;28;20033;-72
2022/10/29 10:57:41;;;;;;;8.32;2.45;;;16.90;99.90;;;;;;5013695;28;20032;-73
2022/10/29 11:00:17;;;;;;;11.07;2.25;;;17.10;99.90;;;;;;5013428;28;20053;-72
2022/10/29 11:03:01;;;;;;;5.85;2.33;;;17.20;99.90;;;;;;5012146;28;20043;-71
2022/10/29 11:06:02;;;;;;;4.83;2.10;;;17.40;99.90;;;;;;5014776;28;20594;-71
2022/10/29 11:08:37;;;;;;;10.13;2.63;;;17.20;99.80;;;;;;5016916;28;20118;-72
2022/10/29 11:11:12;;;;;;;7.60;2.65;;;17.20;99.90;;;;;;5015929;28;20027;-73
2022/10/29 11:13:40;;;;;;;5.43;2.40;;;17.40;99.70;;;;;;5013878;28;20483;-72
2022/10/29 11:16:18;;;;;;;6.18;2.78;;;17.50;99.70;;;;;;5018407;28;20030;-71
2022/10/29 11:18:55;;;;;;;8.98;2.25;;;17.50;99.60;;;;;;5013454;28;20045;-72
2022/10/29 11:21:28;;;;;;;9.20;2.47;;;17.70;99.90;;;;;;5006840;28;20041;-73
2022/10/29 11:24:02;;;;;;;5.18;2.10;;;17.80;99.90;;;;;;5007233;28;20055;-72
2022/10/29 11:26:53;;;;;;;6.88;2.20;;;17.90;99.60;;;;;;5011318;28;20100;-72
2022/10/29 11:29:42;;;;;;;6.97;2.28;;;17.90;99.80;;;;;;5009966;28;20374;-72
2022/10/29 11:32:47;;;;;;;5.75;2.78;;;18.00;99.60;;;;;;5012666;28;20217;-74
2022/10/29 11:35:17;;;;;;;11.30;3.17;;;18.00;99.50;;;;;;5004835;28;20574;-73
2022/10/29 11:37:48;;;;;;;5.60;2.78;;;18.20;99.10;;;;;;5009636;28;20037;-73
2022/10/29 11:40:22;;;;;;;6.85;2.22;;;18.20;99.10;;;;;;5009981;28;20388;-73
2022/10/29 11:42:49;;;;;;;7.57;2.40;;;18.30;99.60;;;;;;5007486;28;20465;-73
2022/10/29 11:45:27;;;;;;;5.43;2.22;;;18.30;99.30;;;;;;5007616;28;20026;-73
2022/10/29 11:48:19;;;;;;;6.38;2.17;;;18.40;99.70;;;;;;5003720;28;20088;-72
2022/10/29 11:50:59;;;;;;;6.80;2.28;;;18.30;99.10;;;;;;5008213;28;20522;-72
2022/10/29 11:53:54;;;;;;;6.25;2.63;;;18.40;99.40;;;;;;5009373;28;20040;-72
2022/10/29 11:56:38;;;;;;;11.85;3.50;;;18.50;98.80;;;;;;5004986;28;20021;-73
2022/10/29 11:59:36;;;;;;;6.40;1.88;;;18.50;99.10;;;;;;5012269;28;20144;-73
2022/10/29 12:02:28;;;;;;;7.30;2.55;;;18.50;98.40;;;;;;5008125;28;20036;-73
2022/10/29 12:05:14;;;;;;;8.15;2.63;;;18.50;98.60;;;;;;5013685;28;20044;-73
2022/10/29 12:07:40;;;;;;;6.57;2.03;;;18.70;99.00;;;;;;5002069;28;20033;-73
2022/10/29 12:10:45;;;;;;;6.45;2.22;;;18.80;98.50;;;;;;5005103;28;20026;-73
2022/10/29 12:13:37;;;;;;;5.25;2.10;;;19.00;98.30;;;;;;5005404;28;21022;-72
2022/10/29 12:16:03;;;;;;;7.43;1.88;;;19.00;98.80;;;;;;5005103;28;20036;-72
2022/10/29 12:18:57;;;;;;;4.15;2.08;;;18.90;98.50;;;;;;5011203;28;20045;-72
2022/10/29 12:21:22;;;;;;;6.95;1.92;;;18.80;97.80;;;;;;5003567;28;20141;-73
2022/10/29 12:24:01;;;;;;;7.45;2.20;;;19.00;98.40;;;;;;5008370;28;20175;-73
2022/10/29 12:26:41;;;;;;;5.88;2.50;;;19.00;98.20;;;;;;5013326;28;20369;-72
2022/10/29 12:29:22;;;;;;;6.28;2.63;;;19.20;98.30;;;;;;5006722;28;20026;-72
2022/10/29 12:32:06;;;;;;;5.32;1.83;;;19.20;98.40;;;;;;5008782;28;20045;-73
2022/10/29 12:34:44;;;;;;;9.70;2.63;;;19.40;98.30;;;;;;5013652;28;20037;-73
2022/10/29 12:37:29;;;;;;;5.63;1.85;;;19.30;98.10;;;;;;5013761;28;20026;-73
2022/10/29 12:40:00;;;;;;;10.30;2.95;;;19.30;98.40;;;;;;5013011;28;20034;-73
2022/10/29 12:42:29;;;;;;;6.45;2.95;;;19.40;98.20;;;;;;5007817;28;20486;-72
2022/10/29 12:45:14;;;;;;;4.78;2.40;;;19.20;98.00;;;;;;5006833;28;20618;-74
2022/10/29 12:47:53;;;;;;;8.65;2.10;;;19.20;97.90;;;;;;5013774;28;20120;-73
2022/10/29 12:50:37;;;;;;;9.35;2.50;;;19.00;98.10;;;;;;5016832;28;20029;-73
2022/10/29 12:53:13;;;;;;;;;;;19.30;97.90;;;;;;5009158;28;20022;-73
2022/10/29 12:55:41;;;;;;;6.80;2.63;;;19.30;98.20;;;;;;5020118;28;20337;-73
2022/10/29 12:58:44;;;;;;;12.52;3.03;;;19.40;98.40;;;;;;5017135;28;20049;-73
2022/10/29 13:01:33;;;;;;;8.88;2.80;;;19.50;98.40;;;;;;5007662;28;20275;-74
2022/10/29 13:04:03;;;;;;;7.55;2.83;;;19.40;98.20;;;;;;5018893;28;20621;-73
2022/10/29 13:06:40;;;;;;;7.22;2.30;;;19.40;98.20;;;;;;5012744;28;20045;-73
2022/10/29 13:09:25;;;;;;;8.93;2.33;;;19.30;98.20;;;;;;5015440;28;20057;-73